Impacts METAR Board
IDs:

KSTL - St Louis/Lambert Int, MO, US

Updated at: 0700 UTC 24 Sep 2018
Potential Impact None Slight Moderate High
Time 23/19Z 23/20Z 23/21Z 23/22Z 23/23Z 24/00Z 24/01Z 24/02Z 24/03Z 24/04Z 24/05Z 24/06Z 24/07Z
Temp77 79 79 79 78 76 76 76 75 72 70 69 69
Dewpt57 57 57 58 58 59 60 60 61 63 64 64 64
Altim30.07 30.03 30.02 30.00 30.00 30.00 30.00 30.02 30.02 30.03 30.02 30.01 30.00
VIS10 10 10 10 10 10 10 10 10 10 10 10 10
CIG-- -- -- -- -- -- 49 49 50 -- -- 60 60
CoverSCTSCTSCTFEWFEWSCTBKNBKNBKNSCTFEWBKNBKN
FltCatVFRVFRVFRVFRVFRVFRVFRVFRVFRVFRVFRVFRVFR
WX--------------------------
WDir301101201101109010011011012012011090
WSpd6 8 5 7 9 6 5 6 7 9 6 6 6
WGst-- 14 -- -- -- -- -- -- -- -- -- -- --
Raw hourly METARs
KSTL 231851Z 03006KT 10SM FEW040 SCT250 25/14 A3007 RMK AO2 SLP175 T02500139
KSTL 231951Z 11008G14KT 10SM FEW040 SCT250 26/14 A3003 RMK AO2 SLP163 T02610139
KSTL 232051Z 12005KT 10SM SCT047 SCT250 26/14 A3002 RMK AO2 SLP159 T02610139 56024
KSTL 232151Z 11007KT 10SM FEW047 FEW250 26/14 A3000 RMK AO2 SLP153 T02610144
KSTL 232251Z 11009KT 10SM FEW049 FEW250 26/14 A3000 RMK AO2 SLP154 T02560144
KSTL 232351Z 09006KT 10SM SCT048 24/15 A3000 RMK AO2 SLP154 T02440150 10267 20233 56006
KSTL 240051Z 10005KT 10SM BKN049 24/16 A3000 RMK AO2 SLP154 T02440156
KSTL 240151Z 11006KT 10SM BKN049 24/16 A3002 RMK AO2 SLP158 T02440156
KSTL 240251Z 11007KT 10SM BKN050 24/16 A3002 RMK AO2 SLP158 T02390161 53006
KSTL 240351Z 12009KT 10SM SCT049 22/17 A3003 RMK AO2 SLP159 T02220172
KSTL 240451Z 12006KT 10SM FEW048 21/18 A3002 RMK AO2 SLP158 T02110178
KSTL 240551Z 11006KT 10SM BKN060 21/18 A3001 RMK AO2 SLP153 T02060178 10250 20200 402670128 58003
KSTL 240651Z 09006KT 10SM BKN060 21/18 A3000 RMK AO2 SLP150 T02060178



Page loaded:  07:32 UTC  |   12:32 AM Pacific  |   01:32 AM Mountain  |   02:32 AM Central  |   03:32 AM Eastern

 

ADVISORIES

FORECASTS

FORECASTS

OBSERVATIONS

USER TOOLS

ABOUT US